createdAt,value
2023-03-08T00:00:46.016Z,99613.03
2023-03-08T00:03:49.026Z,99616.63
2023-03-08T00:06:52.012Z,99613.97
2023-03-08T00:09:54.927Z,99622.94
2023-03-08T00:12:59.235Z,99612.28
2023-03-08T00:16:02.900Z,99630.16
2023-03-08T00:19:05.840Z,99630.16
2023-03-08T00:22:08.856Z,99629.41
2023-03-08T00:25:12.254Z,99641.75
2023-03-08T00:28:16.533Z,99644.50
2023-03-08T00:31:19.748Z,99651.63
2023-03-08T00:34:23.112Z,99653.44
2023-03-08T00:37:26.052Z,99649.94
2023-03-08T00:40:29.020Z,99660.56
2023-03-08T00:43:34.880Z,99664.19
2023-03-08T00:46:39.527Z,99664.19
2023-03-08T00:49:42.636Z,99660.75
2023-03-08T00:52:45.623Z,99650.97
2023-03-08T00:55:54.252Z,99661.63
2023-03-08T00:58:58.571Z,99659.06
2023-03-08T01:02:01.883Z,99666.09
2023-03-08T01:05:05.052Z,99665.22
2023-03-08T01:08:07.981Z,99667.06
2023-03-08T01:11:17.698Z,99675.03
2023-03-08T01:14:23.568Z,99669.72
2023-03-08T01:17:26.696Z,99670.53
2023-03-08T01:20:29.628Z,99667.81
2023-03-08T01:23:33.360Z,99675.78
2023-03-08T01:26:36.618Z,99678.44
2023-03-08T01:29:41.146Z,99677.59
2023-03-08T01:32:44.187Z,99673.13
2023-03-08T01:35:47.099Z,99677.59
2023-03-08T01:38:51.981Z,99678.53
2023-03-08T01:41:54.964Z,99683.00
2023-03-08T01:45:01.013Z,99681.19
2023-03-08T01:48:06.259Z,99680.34
2023-03-08T01:51:37.244Z,99680.34
2023-03-08T01:54:46.936Z,99681.28
2023-03-08T01:57:53.453Z,99689.28
2023-03-08T02:00:58.219Z,99686.59
2023-03-08T02:04:01.550Z,99687.47
2023-03-08T02:07:05.003Z,99692.78
2023-03-08T02:10:09.307Z,99700.78
2023-03-08T02:13:13.696Z,99701.63
2023-03-08T02:16:22.200Z,99703.44
2023-03-08T02:19:33.404Z,99700.78
2023-03-08T02:22:40.180Z,99704.38
2023-03-08T02:25:50.745Z,99711.50
2023-03-08T02:28:53.843Z,99707.13
2023-03-08T02:31:57.513Z,99708.06
2023-03-08T02:35:00.470Z,99699.25
2023-03-08T02:38:04.767Z,99704.59
2023-03-08T02:41:07.975Z,99704.59
2023-03-08T02:44:12.466Z,99712.56
2023-03-08T02:47:15.481Z,99712.56
2023-03-08T02:50:18.632Z,99722.22
2023-03-08T02:53:23.054Z,99720.53
2023-03-08T02:56:26.063Z,99719.69
2023-03-08T02:59:30.824Z,99717.94
2023-03-08T03:02:34.939Z,99733.84
2023-03-08T03:05:43.085Z,99725.00
2023-03-08T03:08:50.805Z,99728.59
2023-03-08T03:11:54.902Z,99719.03
2023-03-08T03:14:58.273Z,99726.03
2023-03-08T03:18:01.905Z,99726.91
2023-03-08T03:21:06.055Z,99727.00
2023-03-08T03:24:10.532Z,99735.81
2023-03-08T03:27:22.244Z,99738.47
2023-03-08T03:30:25.256Z,99730.50
2023-03-08T03:33:29.591Z,99744.53
2023-03-08T03:36:34.358Z,99742.84
2023-03-08T03:39:39.693Z,99745.50
2023-03-08T03:42:45.621Z,99749.13
2023-03-08T03:45:56.683Z,99750.84
2023-03-08T03:49:00.289Z,99750.06
2023-03-08T03:52:09.256Z,99758.06
2023-03-08T03:55:20.014Z,99755.41
2023-03-08T03:58:24.229Z,99773.03
2023-03-08T04:01:29.440Z,99766.03
2023-03-08T04:04:39.454Z,99775.81
2023-03-08T04:07:42.965Z,99775.72
2023-03-08T04:10:47.413Z,99773.91
2023-03-08T04:13:50.885Z,99780.09
2023-03-08T04:16:57.285Z,99776.47
2023-03-08T04:20:08.016Z,99776.47
2023-03-08T04:23:16.491Z,99776.47
2023-03-08T04:26:23.706Z,99788.81
2023-03-08T04:29:26.832Z,99787.84
2023-03-08T04:32:31.784Z,99793.19
2023-03-08T04:35:35.481Z,99798.50
2023-03-08T04:38:40.117Z,99792.34
2023-03-08T04:41:44.587Z,99793.28
2023-03-08T04:45:08.989Z,99795.09
2023-03-08T04:48:12.116Z,99791.59
2023-03-08T04:51:16.859Z,99791.50
2023-03-08T04:54:21.358Z,99794.16
2023-03-08T04:57:31.765Z,99788.81
2023-03-08T05:00:36.361Z,99794.16
2023-03-08T05:03:39.927Z,99794.25
2023-03-08T05:06:43.691Z,99804.03
2023-03-08T05:09:51.772Z,99805.81
2023-03-08T05:12:56.200Z,99796.97
2023-03-08T05:15:59.722Z,99793.56
2023-03-08T05:19:04.463Z,99792.63
2023-03-08T05:22:12.873Z,99789.22
2023-03-08T05:25:21.879Z,99798.13
2023-03-08T05:28:28.786Z,99786.72
2023-03-08T05:31:32.353Z,99782.28
2023-03-08T05:34:39.264Z,99796.44
2023-03-08T05:37:45.176Z,99798.22
2023-03-08T05:40:48.520Z,99799.09
2023-03-08T05:43:53.430Z,99799.94
2023-03-08T05:46:57.395Z,99800.03
2023-03-08T05:50:00.399Z,99805.34
2023-03-08T05:53:06.261Z,99804.47
2023-03-08T05:56:10.712Z,99804.47
2023-03-08T05:59:18.324Z,99814.28
2023-03-08T06:02:23.497Z,99816.84
2023-03-08T06:05:30.193Z,99820.38
2023-03-08T06:08:34.206Z,99817.72
2023-03-08T06:11:37.368Z,99814.94
2023-03-08T06:14:42.867Z,99828.25
2023-03-08T06:17:47.079Z,99827.31
2023-03-08T06:21:01.971Z,99830.78
2023-03-08T06:24:06.864Z,99829.88
2023-03-08T06:27:09.962Z,99822.75
2023-03-08T06:30:17.338Z,99829.75
2023-03-08T06:33:21.629Z,99828.81
2023-03-08T06:36:24.807Z,99836.69
2023-03-08T06:39:30.911Z,99842.97
2023-03-08T06:42:41.414Z,99848.28
2023-03-08T06:45:49.958Z,99842.97
2023-03-08T06:48:54.464Z,99851.78
2023-03-08T06:51:57.519Z,99851.78
2023-03-08T06:55:00.550Z,99844.78
2023-03-08T06:58:03.782Z,99847.44
2023-03-08T07:01:09.703Z,99845.63
2023-03-08T07:04:12.755Z,99840.28
2023-03-08T07:07:15.739Z,99847.34
2023-03-08T07:10:20.652Z,99854.34
2023-03-08T07:13:24.217Z,99843.72
2023-03-08T07:16:29.060Z,99843.72
2023-03-08T07:19:32.803Z,99844.69
2023-03-08T07:22:35.769Z,99834.97
2023-03-08T07:25:40.157Z,99827.00
2023-03-08T07:28:43.204Z,99827.97
2023-03-08T07:31:47.517Z,99827.97
2023-03-08T07:34:50.503Z,99829.75
2023-03-08T07:37:53.507Z,99825.41
2023-03-08T07:40:57.524Z,99820.09
2023-03-08T07:44:00.432Z,99828.91
2023-03-08T07:47:05.998Z,99827.97
2023-03-08T07:50:10.373Z,99824.34
2023-03-08T07:53:13.311Z,99824.34
2023-03-08T07:56:16.265Z,99828.81
2023-03-08T07:59:19.280Z,99830.63
2023-03-08T08:02:24.042Z,99828.81
2023-03-08T08:05:27.120Z,99829.66
2023-03-08T08:08:30.066Z,99816.47
2023-03-08T08:11:34.296Z,99822.66
2023-03-08T08:14:37.410Z,99827.97
2023-03-08T08:17:41.750Z,99817.31
2023-03-08T08:20:44.678Z,99822.66
2023-03-08T08:23:48.310Z,99828.81
2023-03-08T08:26:51.212Z,99822.66
2023-03-08T08:29:54.221Z,99834.97
2023-03-08T08:33:01.264Z,99834.03
2023-03-08T08:36:06.668Z,99839.34
2023-03-08T08:39:09.839Z,99841.06
2023-03-08T08:42:12.867Z,99837.47
2023-03-08T08:45:16.166Z,99836.53
2023-03-08T08:48:20.581Z,99827.59
2023-03-08T08:51:23.763Z,99834.63
2023-03-08T08:54:26.924Z,99830.13
2023-03-08T08:57:29.956Z,99822.09
2023-03-08T09:00:34.558Z,99822.09
2023-03-08T09:03:38.857Z,99822.09
2023-03-08T09:06:41.872Z,99823.78
2023-03-08T09:09:46.434Z,99811.44
2023-03-08T09:12:49.486Z,99820.19
2023-03-08T09:15:52.433Z,99811.22
2023-03-08T09:18:58.002Z,99811.22
2023-03-08T09:22:01.077Z,99812.09
2023-03-08T09:25:04.746Z,99818.28
2023-03-08T09:28:07.720Z,99813.91
2023-03-08T09:31:14.986Z,99812.97
2023-03-08T09:34:19.538Z,99810.28
2023-03-08T09:37:22.569Z,99804.13
2023-03-08T09:40:28.072Z,99811.13
2023-03-08T09:43:45.399Z,99812.97
2023-03-08T09:46:53.451Z,99814.66
2023-03-08T09:50:15.928Z,99797.75
2023-03-08T09:53:25.029Z,99797.75
2023-03-08T09:56:34.180Z,99796.78
2023-03-08T09:59:42.744Z,99793.19
2023-03-08T10:02:55.321Z,99797.53
2023-03-08T10:06:05.430Z,99794.81
2023-03-08T10:09:22.341Z,99792.16
2023-03-08T10:12:35.312Z,99791.28
2023-03-08T10:15:43.113Z,99784.16
2023-03-08T10:18:51.624Z,99782.34
2023-03-08T10:21:59.323Z,99776.19
2023-03-08T10:25:05.986Z,99783.19
2023-03-08T10:28:14.635Z,99778.75
2023-03-08T10:31:24.123Z,99769.03
2023-03-08T10:34:35.238Z,99780.81
2023-03-08T10:37:39.789Z,99770.41
2023-03-08T10:40:42.752Z,99769.63
2023-03-08T10:43:48.182Z,99777.63
2023-03-08T10:46:51.649Z,99767.63
2023-03-08T10:50:16.478Z,99770.88
2023-03-08T10:53:23.180Z,99765.31
2023-03-08T10:56:30.195Z,99768.56
2023-03-08T10:59:35.665Z,99751.44
2023-03-08T11:02:39.192Z,99760.06
2023-03-08T11:05:52.608Z,99750.09
2023-03-08T11:08:59.307Z,99748.19
2023-03-08T11:12:02.197Z,99741.91
2023-03-08T11:15:14.670Z,99742.66
2023-03-08T11:18:30.467Z,99732.88
2023-03-08T11:21:42.495Z,99721.38
2023-03-08T11:24:57.195Z,99721.28
2023-03-08T11:28:30.476Z,99716.91
2023-03-08T11:31:41.418Z,99715.19
2023-03-08T11:34:58.356Z,99708.16
2023-03-08T11:38:07.892Z,99702.97
2023-03-08T11:41:25.438Z,99702.09
2023-03-08T11:44:43.225Z,99687.06
2023-03-08T11:48:08.164Z,99686.13
2023-03-08T11:51:19.853Z,99681.75
2023-03-08T11:54:40.335Z,99675.59
2023-03-08T11:57:51.592Z,99676.41
2023-03-08T12:01:00.928Z,99668.53
2023-03-08T12:04:10.683Z,99666.00
2023-03-08T12:07:22.914Z,99664.09
2023-03-08T12:10:29.900Z,99660.47
2023-03-08T12:13:37.598Z,99660.47
2023-03-08T12:16:47.840Z,99658.75
2023-03-08T12:19:52.695Z,99653.56
2023-03-08T12:23:01.833Z,99645.66
2023-03-08T12:26:11.400Z,99643.97
2023-03-08T12:29:23.589Z,99643.97
2023-03-08T12:32:28.421Z,99644.91
2023-03-08T12:35:33.582Z,99639.56
2023-03-08T12:38:38.885Z,99633.50
2023-03-08T12:41:41.931Z,99635.22
2023-03-08T12:44:46.256Z,99638.81
2023-03-08T12:47:57.383Z,99634.38
2023-03-08T12:51:09.662Z,99624.59
2023-03-08T12:54:23.239Z,99629.91
2023-03-08T12:57:30.413Z,99626.50
2023-03-08T13:00:37.706Z,99629.97
2023-03-08T13:03:42.319Z,99632.66
2023-03-08T13:07:21.496Z,99622.13
2023-03-08T13:10:30.781Z,99613.38
2023-03-08T13:13:51.707Z,99617.84
2023-03-08T13:16:56.257Z,99613.56
2023-03-08T13:20:02.249Z,99617.19
2023-03-08T13:23:12.391Z,99620.81
2023-03-08T13:26:50.258Z,99616.44
2023-03-08T13:29:55.014Z,99619.13
2023-03-08T13:33:00.337Z,99614.66
2023-03-08T13:36:04.941Z,99619.13
2023-03-08T13:39:17.989Z,99627.94
2023-03-08T13:42:25.136Z,99623.56
2023-03-08T13:45:29.511Z,99620.06
2023-03-08T13:48:39.988Z,99623.69
2023-03-08T13:51:45.922Z,99623.78
2023-03-08T13:54:54.805Z,99621.13
2023-03-08T13:58:00.205Z,99627.38
2023-03-08T14:01:13.579Z,99615.88
2023-03-08T14:04:22.480Z,99608.88
2023-03-08T14:07:32.106Z,99608.03
2023-03-08T14:10:39.296Z,99611.53
2023-03-08T14:13:48.453Z,99606.22
2023-03-08T14:16:55.557Z,99606.22
2023-03-08T14:20:05.494Z,99603.44
2023-03-08T14:23:25.414Z,99596.44
2023-03-08T14:26:35.200Z,99596.44
2023-03-08T14:29:39.218Z,99590.25
2023-03-08T14:32:56.094Z,99590.25
2023-03-08T14:36:01.857Z,99597.38
2023-03-08T14:39:05.951Z,99596.50
2023-03-08T14:42:22.265Z,99585.88
2023-03-08T14:45:30.214Z,99581.53
2023-03-08T14:48:36.233Z,99573.56
2023-03-08T14:51:43.159Z,99570.78
2023-03-08T14:54:46.284Z,99570.88
2023-03-08T14:57:50.446Z,99564.59
2023-03-08T15:00:56.122Z,99559.19
2023-03-08T15:03:59.853Z,99552.03
2023-03-08T15:07:04.932Z,99551.09
2023-03-08T15:10:09.552Z,99552.03
2023-03-08T15:13:15.010Z,99549.38
2023-03-08T15:16:18.061Z,99545.78
2023-03-08T15:19:21.043Z,99554.63
2023-03-08T15:22:25.354Z,99550.13
2023-03-08T15:25:31.082Z,99554.63
2023-03-08T15:28:34.213Z,99554.63
2023-03-08T15:31:37.171Z,99548.44
2023-03-08T15:34:40.903Z,99545.78
2023-03-08T15:37:45.759Z,99542.16
2023-03-08T15:40:48.823Z,99539.50
2023-03-08T15:43:54.427Z,99535.03
2023-03-08T15:46:57.527Z,99553.53
2023-03-08T15:50:01.636Z,99547.41
2023-03-08T15:53:05.997Z,99551.75
2023-03-08T15:56:09.007Z,99543.88
2023-03-08T15:59:12.249Z,99548.22
2023-03-08T16:02:16.704Z,99543.00
2023-03-08T16:05:22.740Z,99539.72
2023-03-08T16:08:28.983Z,99536.50
2023-03-08T16:11:33.116Z,99535.19
2023-03-08T16:14:36.599Z,99546.06
2023-03-08T16:17:39.687Z,99543.41
2023-03-08T16:20:43.249Z,99536.91
2023-03-08T16:23:47.726Z,99536.31
2023-03-08T16:26:50.665Z,99542.06
2023-03-08T16:29:54.359Z,99538.88
2023-03-08T16:32:57.403Z,99538.47
2023-03-08T16:36:00.496Z,99549.53
2023-03-08T16:39:05.614Z,99544.78
2023-03-08T16:42:12.785Z,99549.81
2023-03-08T16:45:16.920Z,99546.00
2023-03-08T16:48:20.088Z,99542.16
2023-03-08T16:51:26.205Z,99537.47
2023-03-08T16:54:31.009Z,99529.38
2023-03-08T16:57:34.035Z,99533.94
2023-03-08T17:00:37.049Z,99544.81
2023-03-08T17:03:39.996Z,99543.31
2023-03-08T17:06:45.038Z,99535.78
2023-03-08T17:09:50.646Z,99541.25
2023-03-08T17:12:53.573Z,99542.41
2023-03-08T17:15:56.689Z,99536.47
2023-03-08T17:19:00.914Z,99536.66
2023-03-08T17:22:04.079Z,99535.91
2023-03-08T17:25:10.136Z,99541.25
2023-03-08T17:28:15.830Z,99528.88
2023-03-08T17:31:21.437Z,99528.03
2023-03-08T17:34:24.411Z,99536.03
2023-03-08T17:37:27.450Z,99536.03
2023-03-08T17:40:31.807Z,99537.84
2023-03-08T17:43:35.182Z,99537.84
2023-03-08T17:46:38.835Z,99545.94
2023-03-08T17:49:42.100Z,99539.75
2023-03-08T17:52:44.973Z,99535.28
2023-03-08T17:55:49.352Z,99534.44
2023-03-08T17:58:52.687Z,99533.56
2023-03-08T18:01:55.684Z,99531.88
2023-03-08T18:04:58.700Z,99534.53
2023-03-08T18:08:01.648Z,99530.16
2023-03-08T18:11:06.381Z,99527.59
2023-03-08T18:14:11.368Z,99525.88
2023-03-08T18:17:14.356Z,99526.00
2023-03-08T18:20:19.017Z,99522.47
2023-03-08T18:23:22.239Z,99529.59
2023-03-08T18:26:26.663Z,99526.13
2023-03-08T18:29:29.617Z,99526.19
2023-03-08T18:32:32.772Z,99529.72
2023-03-08T18:35:35.805Z,99530.56
2023-03-08T18:38:39.051Z,99527.91
2023-03-08T18:41:43.460Z,99522.59
2023-03-08T18:44:46.427Z,99525.38
2023-03-08T18:47:50.726Z,99532.47
2023-03-08T18:50:54.509Z,99526.31
2023-03-08T18:53:58.833Z,99530.78
2023-03-08T18:57:03.536Z,99526.41
2023-03-08T19:00:10.582Z,99529.06
2023-03-08T19:03:13.559Z,99523.75
2023-03-08T19:06:16.859Z,99522.91
2023-03-08T19:09:21.759Z,99531.75
2023-03-08T19:12:27.236Z,99524.69
2023-03-08T19:15:30.614Z,99523.75
2023-03-08T19:18:33.477Z,99528.22
2023-03-08T19:21:38.980Z,99531.75
2023-03-08T19:24:42.021Z,99530.78
2023-03-08T19:27:46.391Z,99522.91
2023-03-08T19:30:49.453Z,99521.09
2023-03-08T19:33:52.512Z,99519.38
2023-03-08T19:36:55.904Z,99531.00
2023-03-08T19:40:00.949Z,99529.16
2023-03-08T19:43:06.183Z,99525.66
2023-03-08T19:46:10.057Z,99518.63
2023-03-08T19:49:14.891Z,99520.44
2023-03-08T19:52:17.943Z,99519.59
2023-03-08T19:55:20.905Z,99513.31
2023-03-08T19:58:25.296Z,99514.28
2023-03-08T20:01:29.587Z,99500.97
2023-03-08T20:04:32.793Z,99489.38
2023-03-08T20:07:35.834Z,99503.53
2023-03-08T20:10:39.207Z,99507.06
2023-03-08T20:13:43.609Z,99503.53
2023-03-08T20:16:49.952Z,99498.31
2023-03-08T20:19:53.208Z,99498.31
2023-03-08T20:22:56.441Z,99502.66
2023-03-08T20:25:59.714Z,99506.31
2023-03-08T20:29:05.206Z,99511.63
2023-03-08T20:32:08.318Z,99504.59
2023-03-08T20:35:13.751Z,99503.72
2023-03-08T20:38:16.792Z,99504.59
2023-03-08T20:41:21.889Z,99505.34
2023-03-08T20:44:26.375Z,99513.31
2023-03-08T20:47:29.394Z,99504.38
2023-03-08T20:50:32.880Z,99509.59
2023-03-08T20:53:36.612Z,99506.06
2023-03-08T20:56:39.808Z,99506.94
2023-03-08T20:59:44.212Z,99507.88
2023-03-08T21:02:47.331Z,99509.72
2023-03-08T21:05:50.344Z,99507.06
2023-03-08T21:08:53.679Z,99501.72
2023-03-08T21:11:56.740Z,99509.72
2023-03-08T21:15:02.440Z,99508.84
2023-03-08T21:18:06.659Z,99508.00
2023-03-08T21:21:09.615Z,99501.81
2023-03-08T21:24:14.220Z,99507.13
2023-03-08T21:27:17.381Z,99515.03
2023-03-08T21:30:22.011Z,99506.19
2023-03-08T21:33:25.018Z,99507.88
2023-03-08T21:36:28.056Z,99496.41
2023-03-08T21:39:32.127Z,99497.34
2023-03-08T21:42:35.100Z,99491.28
2023-03-08T21:45:41.874Z,99485.22
2023-03-08T21:48:45.034Z,99493.19
2023-03-08T21:51:48.573Z,99494.16
2023-03-08T21:54:51.745Z,99500.44
2023-03-08T21:57:54.762Z,99503.09
2023-03-08T22:00:59.091Z,99495.00
2023-03-08T22:04:03.811Z,99490.66
2023-03-08T22:07:06.784Z,99499.50
2023-03-08T22:10:12.336Z,99501.19
2023-03-08T22:13:15.616Z,99488.75
2023-03-08T22:16:21.024Z,99497.56
2023-03-08T22:19:24.044Z,99493.94
2023-03-08T22:22:27.055Z,99494.81
2023-03-08T22:25:29.989Z,99495.66
2023-03-08T22:28:32.949Z,99494.69
2023-03-08T22:31:37.263Z,99501.72
2023-03-08T22:34:40.212Z,99493.75
2023-03-08T22:37:43.891Z,99488.44
2023-03-08T22:40:46.869Z,99476.06
2023-03-08T22:43:50.668Z,99486.59
2023-03-08T22:46:55.004Z,99488.44
2023-03-08T22:49:58.112Z,99489.25
2023-03-08T22:53:01.530Z,99489.25
2023-03-08T22:56:04.454Z,99490.13
2023-03-08T22:59:07.422Z,99488.31
2023-03-08T23:02:12.171Z,99499.06
2023-03-08T23:05:16.966Z,99490.22
2023-03-08T23:08:19.899Z,99488.44
2023-03-08T23:11:22.843Z,99461.09
2023-03-08T23:14:25.756Z,99451.38
2023-03-08T23:17:30.202Z,99462.88
2023-03-08T23:20:33.387Z,99456.72
2023-03-08T23:23:37.079Z,99444.38
2023-03-08T23:26:40.479Z,99455.84
2023-03-08T23:29:43.580Z,99450.53
2023-03-08T23:32:47.958Z,99452.13
2023-03-08T23:35:51.053Z,99452.88
2023-03-08T23:38:54.270Z,99429.81
2023-03-08T23:41:57.423Z,99423.53
2023-03-08T23:45:00.474Z,99418.22
2023-03-08T23:48:05.084Z,99421.69
2023-03-08T23:51:10.461Z,99427.03
2023-03-08T23:54:13.956Z,99428.84
2023-03-08T23:57:17.072Z,99432.34
